sensor_id;sensor_type;location;lat;lon;timestamp;pressure;altitude;pressure_sealevel;temperature;humidity
2339;BME280;1180;51.438;6.978;2023-07-09T00:00:15;100419.31;;;28.92;46.00
2339;BME280;1180;51.438;6.978;2023-07-09T00:02:41;100420.56;;;28.89;46.39
2339;BME280;1180;51.438;6.978;2023-07-09T00:05:16;100424.00;;;28.83;46.58
2339;BME280;1180;51.438;6.978;2023-07-09T00:07:43;100424.81;;;28.77;46.68
2339;BME280;1180;51.438;6.978;2023-07-09T00:10:15;100426.06;;;28.81;46.78
2339;BME280;1180;51.438;6.978;2023-07-09T00:12:41;100425.47;;;28.79;46.88
2339;BME280;1180;51.438;6.978;2023-07-09T00:15:08;100422.81;;;28.72;46.97
2339;BME280;1180;51.438;6.978;2023-07-09T00:17:35;100419.97;;;28.67;47.18
2339;BME280;1180;51.438;6.978;2023-07-09T00:20:02;100412.28;;;28.65;47.48
2339;BME280;1180;51.438;6.978;2023-07-09T00:22:30;100423.25;;;28.62;47.66
2339;BME280;1180;51.438;6.978;2023-07-09T00:24:56;100415.94;;;28.64;47.42
2339;BME280;1180;51.438;6.978;2023-07-09T00:27:27;100418.34;;;28.66;47.41
2339;BME280;1180;51.438;6.978;2023-07-09T00:29:56;100421.63;;;28.61;47.75
2339;BME280;1180;51.438;6.978;2023-07-09T00:32:21;100417.59;;;28.52;48.31
2339;BME280;1180;51.438;6.978;2023-07-09T00:34:48;100420.84;;;28.54;48.14
2339;BME280;1180;51.438;6.978;2023-07-09T00:37:18;100417.97;;;28.49;48.28
2339;BME280;1180;51.438;6.978;2023-07-09T00:39:46;100415.56;;;28.47;48.45
2339;BME280;1180;51.438;6.978;2023-07-09T00:42:14;100409.06;;;28.43;48.96
2339;BME280;1180;51.438;6.978;2023-07-09T00:44:53;100416.16;;;28.49;48.73
2339;BME280;1180;51.438;6.978;2023-07-09T00:47:51;100407.66;;;28.40;48.83
2339;BME280;1180;51.438;6.978;2023-07-09T00:50:31;100416.38;;;28.34;48.98
2339;BME280;1180;51.438;6.978;2023-07-09T00:53:08;100415.38;;;28.35;49.04
2339;BME280;1180;51.438;6.978;2023-07-09T00:55:38;100412.31;;;28.38;48.96
2339;BME280;1180;51.438;6.978;2023-07-09T00:58:09;100412.94;;;28.40;49.10
2339;BME280;1180;51.438;6.978;2023-07-09T01:00:43;100410.69;;;28.31;49.52
2339;BME280;1180;51.438;6.978;2023-07-09T01:03:20;100408.88;;;28.31;49.85
2339;BME280;1180;51.438;6.978;2023-07-09T01:05:48;100410.69;;;28.31;49.71
2339;BME280;1180;51.438;6.978;2023-07-09T01:08:21;100416.81;;;28.31;49.89
2339;BME280;1180;51.438;6.978;2023-07-09T01:10:47;100414.97;;;28.32;50.03
2339;BME280;1180;51.438;6.978;2023-07-09T01:13:13;100418.44;;;28.32;50.04
2339;BME280;1180;51.438;6.978;2023-07-09T01:15:40;100419.84;;;28.21;50.41
2339;BME280;1180;51.438;6.978;2023-07-09T01:18:06;100408.50;;;28.21;50.47
2339;BME280;1180;51.438;6.978;2023-07-09T01:20:34;100415.81;;;28.19;50.52
2339;BME280;1180;51.438;6.978;2023-07-09T01:23:00;100410.13;;;28.22;50.38
2339;BME280;1180;51.438;6.978;2023-07-09T01:25:27;100410.91;;;28.16;50.75
2339;BME280;1180;51.438;6.978;2023-07-09T01:27:54;100403.19;;;28.14;51.26
2339;BME280;1180;51.438;6.978;2023-07-09T01:30:31;100414.75;;;28.06;51.35
2339;BME280;1180;51.438;6.978;2023-07-09T01:33:00;100413.75;;;28.07;51.43
2339;BME280;1180;51.438;6.978;2023-07-09T01:35:29;100427.16;;;28.06;51.92
2339;BME280;1180;51.438;6.978;2023-07-09T01:37:55;100423.91;;;28.04;51.85
2339;BME280;1180;51.438;6.978;2023-07-09T01:40:23;100417.00;;;27.96;51.87
2339;BME280;1180;51.438;6.978;2023-07-09T01:42:50;100419.44;;;27.91;51.89
2339;BME280;1180;51.438;6.978;2023-07-09T01:45:16;100415.97;;;27.90;52.29
2339;BME280;1180;51.438;6.978;2023-07-09T01:47:42;100419.63;;;27.96;52.26
2339;BME280;1180;51.438;6.978;2023-07-09T01:50:09;100419.81;;;27.94;52.12
2339;BME280;1180;51.438;6.978;2023-07-09T01:52:38;100422.25;;;27.96;52.10
2339;BME280;1180;51.438;6.978;2023-07-09T01:55:05;100417.78;;;27.96;51.96
2339;BME280;1180;51.438;6.978;2023-07-09T01:57:31;100413.53;;;27.95;52.22
2339;BME280;1180;51.438;6.978;2023-07-09T02:00:03;100416.16;;;27.95;52.23
2339;BME280;1180;51.438;6.978;2023-07-09T02:02:30;100417.41;;;27.93;52.28
2339;BME280;1180;51.438;6.978;2023-07-09T02:04:57;100414.75;;;27.93;52.23
2339;BME280;1180;51.438;6.978;2023-07-09T02:07:24;100412.53;;;27.90;52.07
2339;BME280;1180;51.438;6.978;2023-07-09T02:09:52;100417.97;;;27.81;52.26
2339;BME280;1180;51.438;6.978;2023-07-09T02:12:18;100422.47;;;27.81;52.38
2339;BME280;1180;51.438;6.978;2023-07-09T02:14:45;100421.22;;;27.83;52.78
2339;BME280;1180;51.438;6.978;2023-07-09T02:17:13;100429.13;;;27.83;52.48
2339;BME280;1180;51.438;6.978;2023-07-09T02:19:39;100426.91;;;27.80;53.02
2339;BME280;1180;51.438;6.978;2023-07-09T02:22:07;100424.47;;;27.79;52.80
2339;BME280;1180;51.438;6.978;2023-07-09T02:24:33;100423.66;;;27.78;53.23
2339;BME280;1180;51.438;6.978;2023-07-09T02:27:01;100429.34;;;27.75;53.08
2339;BME280;1180;51.438;6.978;2023-07-09T02:29:29;100424.28;;;27.74;53.26
2339;BME280;1180;51.438;6.978;2023-07-09T02:31:57;100422.22;;;27.69;53.35
2339;BME280;1180;51.438;6.978;2023-07-09T02:34:27;100424.44;;;27.65;53.54
2339;BME280;1180;51.438;6.978;2023-07-09T02:36:54;100429.72;;;27.59;53.95
2339;BME280;1180;51.438;6.978;2023-07-09T02:39:21;100427.69;;;27.61;53.70
2339;BME280;1180;51.438;6.978;2023-07-09T02:41:47;100430.94;;;27.56;54.11
2339;BME280;1180;51.438;6.978;2023-07-09T02:44:14;100431.28;;;27.46;54.10
2339;BME280;1180;51.438;6.978;2023-07-09T02:46:40;100432.06;;;27.40;54.67
2339;BME280;1180;51.438;6.978;2023-07-09T02:49:06;100440.59;;;27.42;54.61
2339;BME280;1180;51.438;6.978;2023-07-09T02:51:33;100446.88;;;27.41;54.44
2339;BME280;1180;51.438;6.978;2023-07-09T02:54:01;100445.25;;;27.40;54.37
2339;BME280;1180;51.438;6.978;2023-07-09T02:56:28;100441.19;;;27.37;54.50
2339;BME280;1180;51.438;6.978;2023-07-09T02:58:54;100444.63;;;27.38;54.76
2339;BME280;1180;51.438;6.978;2023-07-09T03:01:20;100443.59;;;27.32;55.09
2339;BME280;1180;51.438;6.978;2023-07-09T03:03:56;100445.22;;;27.27;54.96
2339;BME280;1180;51.438;6.978;2023-07-09T03:06:23;100446.41;;;27.24;55.23
2339;BME280;1180;51.438;6.978;2023-07-09T03:08:51;100451.63;;;27.17;55.44
2339;BME280;1180;51.438;6.978;2023-07-09T03:11:17;100447.78;;;27.13;55.58
2339;BME280;1180;51.438;6.978;2023-07-09T03:13:44;100450.63;;;27.12;55.49
2339;BME280;1180;51.438;6.978;2023-07-09T03:16:10;100455.88;;;27.12;55.08
2339;BME280;1180;51.438;6.978;2023-07-09T03:18:35;100457.69;;;27.04;55.25
2339;BME280;1180;51.438;6.978;2023-07-09T03:21:01;100456.06;;;27.10;55.68
2339;BME280;1180;51.438;6.978;2023-07-09T03:23:27;100459.75;;;27.16;55.45
2339;BME280;1180;51.438;6.978;2023-07-09T03:25:54;100463.00;;;27.18;55.62
2339;BME280;1180;51.438;6.978;2023-07-09T03:28:20;100467.22;;;27.12;55.46
2339;BME280;1180;51.438;6.978;2023-07-09T03:30:48;100466.59;;;27.03;55.53
2339;BME280;1180;51.438;6.978;2023-07-09T03:33:16;100473.66;;;27.03;55.78
2339;BME280;1180;51.438;6.978;2023-07-09T03:35:42;100470.19;;;26.95;56.00
2339;BME280;1180;51.438;6.978;2023-07-09T03:38:09;100474.25;;;26.98;56.04
2339;BME280;1180;51.438;6.978;2023-07-09T03:40:36;100470.41;;;27.01;56.20
2339;BME280;1180;51.438;6.978;2023-07-09T03:43:04;100466.78;;;27.02;56.10
2339;BME280;1180;51.438;6.978;2023-07-09T03:45:32;100467.97;;;26.99;56.30
2339;BME280;1180;51.438;6.978;2023-07-09T03:47:58;100469.97;;;26.97;56.35
2339;BME280;1180;51.438;6.978;2023-07-09T03:50:24;100470.34;;;26.87;56.19
2339;BME280;1180;51.438;6.978;2023-07-09T03:52:50;100473.78;;;26.88;57.10
2339;BME280;1180;51.438;6.978;2023-07-09T03:55:16;100478.91;;;26.96;57.05
2339;BME280;1180;51.438;6.978;2023-07-09T03:57:42;100476.06;;;26.98;56.75
2339;BME280;1180;51.438;6.978;2023-07-09T04:00:09;100473.22;;;26.92;56.66
2339;BME280;1180;51.438;6.978;2023-07-09T04:02:39;100479.72;;;26.96;57.09
2339;BME280;1180;51.438;6.978;2023-07-09T04:05:06;100475.69;;;27.01;57.04
2339;BME280;1180;51.438;6.978;2023-07-09T04:07:34;100475.50;;;27.02;57.13
2339;BME280;1180;51.438;6.978;2023-07-09T04:10:00;100482.81;;;27.07;57.23
2339;BME280;1180;51.438;6.978;2023-07-09T04:12:27;100476.06;;;26.98;57.20
2339;BME280;1180;51.438;6.978;2023-07-09T04:14:53;100475.84;;;26.92;57.25
2339;BME280;1180;51.438;6.978;2023-07-09T04:17:19;100475.22;;;26.90;57.39
2339;BME280;1180;51.438;6.978;2023-07-09T04:19:45;100482.13;;;26.98;57.07
2339;BME280;1180;51.438;6.978;2023-07-09T04:22:11;100478.13;;;27.02;57.08
2339;BME280;1180;51.438;6.978;2023-07-09T04:24:37;100473.50;;;27.04;56.66
2339;BME280;1180;51.438;6.978;2023-07-09T04:27:03;100482.63;;;27.08;56.64
2339;BME280;1180;51.438;6.978;2023-07-09T04:29:30;100476.97;;;27.12;56.90
2339;BME280;1180;51.438;6.978;2023-07-09T04:31:56;100469.69;;;27.14;57.00
2339;BME280;1180;51.438;6.978;2023-07-09T04:34:22;100472.34;;;27.20;56.76
2339;BME280;1180;51.438;6.978;2023-07-09T04:36:48;100473.56;;;27.24;57.11
2339;BME280;1180;51.438;6.978;2023-07-09T04:39:14;100473.19;;;27.28;57.09
2339;BME280;1180;51.438;6.978;2023-07-09T04:41:40;100476.66;;;27.35;56.42
2339;BME280;1180;51.438;6.978;2023-07-09T04:44:06;100465.72;;;27.38;56.80
2339;BME280;1180;51.438;6.978;2023-07-09T04:46:32;100472.00;;;27.37;56.89
2339;BME280;1180;51.438;6.978;2023-07-09T04:48:58;100472.59;;;27.39;56.42
2339;BME280;1180;51.438;6.978;2023-07-09T04:51:26;100473.66;;;27.45;55.99
2339;BME280;1180;51.438;6.978;2023-07-09T04:53:51;100475.88;;;27.48;56.20
2339;BME280;1180;51.438;6.978;2023-07-09T04:56:18;100473.44;;;27.46;56.04
2339;BME280;1180;51.438;6.978;2023-07-09T04:58:44;100475.69;;;27.49;55.91
2339;BME280;1180;51.438;6.978;2023-07-09T05:01:09;100477.97;;;27.52;55.73
2339;BME280;1180;51.438;6.978;2023-07-09T05:03:36;100479.19;;;27.57;55.50
2339;BME280;1180;51.438;6.978;2023-07-09T05:06:03;100480.59;;;27.52;56.01
2339;BME280;1180;51.438;6.978;2023-07-09T05:08:28;100479.13;;;27.50;56.34
2339;BME280;1180;51.438;6.978;2023-07-09T05:10:56;100483.66;;;27.56;56.29
2339;BME280;1180;51.438;6.978;2023-07-09T05:13:23;100479.59;;;27.60;56.04
2339;BME280;1180;51.438;6.978;2023-07-09T05:15:49;100482.22;;;27.60;56.27
2339;BME280;1180;51.438;6.978;2023-07-09T05:18:16;100481.44;;;27.66;55.88
2339;BME280;1180;51.438;6.978;2023-07-09T05:20:43;100479.84;;;27.72;56.11
2339;BME280;1180;51.438;6.978;2023-07-09T05:23:10;100481.06;;;27.76;55.69
2339;BME280;1180;51.438;6.978;2023-07-09T05:25:36;100492.63;;;27.75;56.35
2339;BME280;1180;51.438;6.978;2023-07-09T05:28:03;100487.78;;;27.79;56.55
2339;BME280;1180;51.438;6.978;2023-07-09T05:30:30;100491.44;;;27.85;56.38
2339;BME280;1180;51.438;6.978;2023-07-09T05:32:55;100485.75;;;27.81;57.15
2339;BME280;1180;51.438;6.978;2023-07-09T05:35:23;100481.69;;;27.85;56.73
2339;BME280;1180;51.438;6.978;2023-07-09T05:37:51;100480.28;;;27.89;56.09
2339;BME280;1180;51.438;6.978;2023-07-09T05:40:17;100476.03;;;27.95;55.56
2339;BME280;1180;51.438;6.978;2023-07-09T05:42:43;100484.13;;;27.87;56.43
2339;BME280;1180;51.438;6.978;2023-07-09T05:45:09;100488.00;;;27.97;56.40
2339;BME280;1180;51.438;6.978;2023-07-09T05:47:35;100484.94;;;28.01;56.25
2339;BME280;1180;51.438;6.978;2023-07-09T05:50:02;100488.22;;;27.96;56.71
2339;BME280;1180;51.438;6.978;2023-07-09T05:52:29;100478.47;;;28.03;56.47
2339;BME280;1180;51.438;6.978;2023-07-09T05:54:55;100487.81;;;28.06;57.14
2339;BME280;1180;51.438;6.978;2023-07-09T05:57:21;100484.75;;;28.02;57.33
2339;BME280;1180;51.438;6.978;2023-07-09T05:59:47;100482.94;;;28.03;57.44
2339;BME280;1180;51.438;6.978;2023-07-09T06:02:14;100488.59;;;28.00;57.80
2339;BME280;1180;51.438;6.978;2023-07-09T06:04:40;100496.91;;;27.96;58.30
2339;BME280;1180;51.438;6.978;2023-07-09T06:07:08;100496.94;;;28.10;58.10
2339;BME280;1180;51.438;6.978;2023-07-09T06:09:35;100497.81;;;28.24;57.33
2339;BME280;1180;51.438;6.978;2023-07-09T06:12:01;100501.25;;;28.24;58.02
2339;BME280;1180;51.438;6.978;2023-07-09T06:14:27;100497.41;;;28.27;57.60
2339;BME280;1180;51.438;6.978;2023-07-09T06:16:53;100502.47;;;28.35;56.88
2339;BME280;1180;51.438;6.978;2023-07-09T06:19:19;100497.81;;;28.44;56.66
2339;BME280;1180;51.438;6.978;2023-07-09T06:21:44;100505.50;;;28.46;57.46
2339;BME280;1180;51.438;6.978;2023-07-09T06:24:10;100505.91;;;28.56;56.86
2339;BME280;1180;51.438;6.978;2023-07-09T06:26:36;100498.41;;;28.53;57.89
2339;BME280;1180;51.438;6.978;2023-07-09T06:29:02;100497.78;;;28.64;57.25
2339;BME280;1180;51.438;6.978;2023-07-09T06:31:29;100497.56;;;28.73;56.95
2339;BME280;1180;51.438;6.978;2023-07-09T06:33:55;100489.25;;;28.69;56.95
2339;BME280;1180;51.438;6.978;2023-07-09T06:36:21;100491.47;;;28.79;56.16
2339;BME280;1180;51.438;6.978;2023-07-09T06:38:46;100496.16;;;28.83;55.31
2339;BME280;1180;51.438;6.978;2023-07-09T06:41:14;100502.63;;;28.94;55.24
2339;BME280;1180;51.438;6.978;2023-07-09T06:43:40;100498.97;;;28.95;55.96
2339;BME280;1180;51.438;6.978;2023-07-09T06:46:07;100508.28;;;28.98;55.44
2339;BME280;1180;51.438;6.978;2023-07-09T06:48:35;100510.50;;;29.08;55.89
2339;BME280;1180;51.438;6.978;2023-07-09T06:51:01;100508.88;;;29.14;55.89
2339;BME280;1180;51.438;6.978;2023-07-09T06:53:28;100510.91;;;29.18;55.72
2339;BME280;1180;51.438;6.978;2023-07-09T06:55:55;100513.50;;;29.25;56.10
2339;BME280;1180;51.438;6.978;2023-07-09T06:58:25;100516.13;;;29.32;55.91
2339;BME280;1180;51.438;6.978;2023-07-09T07:00:54;100509.41;;;29.36;55.72
2339;BME280;1180;51.438;6.978;2023-07-09T07:03:20;100518.56;;;29.40;55.45
2339;BME280;1180;51.438;6.978;2023-07-09T07:05:47;100506.78;;;29.43;55.48
2339;BME280;1180;51.438;6.978;2023-07-09T07:08:18;100516.94;;;29.46;55.35
2339;BME280;1180;51.438;6.978;2023-07-09T07:10:45;100511.63;;;29.52;55.65
2339;BME280;1180;51.438;6.978;2023-07-09T07:13:12;100511.78;;;29.58;55.40
2339;BME280;1180;51.438;6.978;2023-07-09T07:15:38;100510.13;;;29.63;55.19
2339;BME280;1180;51.438;6.978;2023-07-09T07:18:05;100513.16;;;29.67;55.27
2339;BME280;1180;51.438;6.978;2023-07-09T07:20:32;100514.94;;;29.73;55.48
2339;BME280;1180;51.438;6.978;2023-07-09T07:22:57;100503.56;;;29.73;55.62
2339;BME280;1180;51.438;6.978;2023-07-09T07:25:24;100509.03;;;29.78;55.67
2339;BME280;1180;51.438;6.978;2023-07-09T07:27:50;100502.91;;;29.77;54.38
2339;BME280;1180;51.438;6.978;2023-07-09T07:30:16;100507.31;;;29.90;54.36
2339;BME280;1180;51.438;6.978;2023-07-09T07:32:47;100509.94;;;29.97;54.24
2339;BME280;1180;51.438;6.978;2023-07-09T07:35:14;100512.94;;;30.07;54.14
2339;BME280;1180;51.438;6.978;2023-07-09T07:37:41;100504.34;;;30.12;54.26
2339;BME280;1180;51.438;6.978;2023-07-09T07:40:07;100500.63;;;30.20;53.43
2339;BME280;1180;51.438;6.978;2023-07-09T07:42:34;100503.28;;;30.20;53.23
2339;BME280;1180;51.438;6.978;2023-07-09T07:45:01;100504.69;;;30.22;53.07
2339;BME280;1180;51.438;6.978;2023-07-09T07:47:27;100506.25;;;30.30;53.23
2339;BME280;1180;51.438;6.978;2023-07-09T07:49:53;100508.84;;;30.37;53.43
2339;BME280;1180;51.438;6.978;2023-07-09T07:52:20;100506.94;;;30.44;53.50
2339;BME280;1180;51.438;6.978;2023-07-09T07:54:46;100504.84;;;30.53;52.84
2339;BME280;1180;51.438;6.978;2023-07-09T07:57:12;100506.63;;;30.59;52.01
2339;BME280;1180;51.438;6.978;2023-07-09T07:59:38;100502.09;;;30.66;52.99
2339;BME280;1180;51.438;6.978;2023-07-09T08:02:06;100501.66;;;30.69;52.96
2339;BME280;1180;51.438;6.978;2023-07-09T08:04:34;100501.94;;;30.80;52.06
2339;BME280;1180;51.438;6.978;2023-07-09T08:07:00;100494.97;;;30.86;52.55
2339;BME280;1180;51.438;6.978;2023-07-09T08:09:26;100494.91;;;30.92;52.89
2339;BME280;1180;51.438;6.978;2023-07-09T08:11:51;100487.28;;;30.96;53.22
2339;BME280;1180;51.438;6.978;2023-07-09T08:14:17;100489.50;;;30.99;52.90
2339;BME280;1180;51.438;6.978;2023-07-09T08:16:43;100489.06;;;30.83;54.03
2339;BME280;1180;51.438;6.978;2023-07-09T08:19:09;100487.09;;;30.97;53.61
2339;BME280;1180;51.438;6.978;2023-07-09T08:21:34;100493.69;;;31.07;53.03
2339;BME280;1180;51.438;6.978;2023-07-09T08:24:00;100500.72;;;31.01;53.49
2339;BME280;1180;51.438;6.978;2023-07-09T08:26:26;100496.94;;;31.09;53.41
2339;BME280;1180;51.438;6.978;2023-07-09T08:28:52;100490.31;;;31.18;52.80
2339;BME280;1180;51.438;6.978;2023-07-09T08:31:20;100490.50;;;31.23;54.75
2339;BME280;1180;51.438;6.978;2023-07-09T08:33:45;100490.38;;;31.30;53.41
2339;BME280;1180;51.438;6.978;2023-07-09T08:36:11;100482.94;;;31.39;53.10
2339;BME280;1180;51.438;6.978;2023-07-09T08:38:37;100477.63;;;31.39;51.98
2339;BME280;1180;51.438;6.978;2023-07-09T08:43:54;100472.97;;;31.53;52.50
2339;BME280;1180;51.438;6.978;2023-07-09T08:49:03;100471.28;;;31.70;50.83
2339;BME280;1180;51.438;6.978;2023-07-09T08:51:39;100471.06;;;31.72;52.03
2339;BME280;1180;51.438;6.978;2023-07-09T08:54:25;100477.09;;;31.79;51.58
2339;BME280;1180;51.438;6.978;2023-07-09T08:56:52;100471.25;;;31.89;48.76
2339;BME280;1180;51.438;6.978;2023-07-09T08:59:19;100471.13;;;31.96;48.98
2339;BME280;1180;51.438;6.978;2023-07-09T09:01:53;100475.16;;;31.98;49.33
2339;BME280;1180;51.438;6.978;2023-07-09T09:04:29;100466.53;;;32.03;48.41
2339;BME280;1180;51.438;6.978;2023-07-09T09:09:48;100467.78;;;32.12;49.35
2339;BME280;1180;51.438;6.978;2023-07-09T09:12:19;100465.63;;;32.21;48.81
2339;BME280;1180;51.438;6.978;2023-07-09T09:14:53;100472.91;;;32.26;48.28
2339;BME280;1180;51.438;6.978;2023-07-09T09:17:25;100464.47;;;32.29;47.55
2339;BME280;1180;51.438;6.978;2023-07-09T09:19:57;100468.84;;;32.23;47.80
2339;BME280;1180;51.438;6.978;2023-07-09T09:27:42;100458.47;;;32.46;46.85
2339;BME280;1180;51.438;6.978;2023-07-09T09:30:16;100464.97;;;32.50;46.92
2339;BME280;1180;51.438;6.978;2023-07-09T09:32:55;100465.66;;;32.57;45.33
2339;BME280;1180;51.438;6.978;2023-07-09T09:35:31;100463.53;;;32.71;44.15
2339;BME280;1180;51.438;6.978;2023-07-09T09:37:59;100456.47;;;32.77;44.78
2339;BME280;1180;51.438;6.978;2023-07-09T09:40:27;100457.38;;;32.82;44.75
2339;BME280;1180;51.438;6.978;2023-07-09T09:42:56;100460.63;;;32.96;44.68
2339;BME280;1180;51.438;6.978;2023-07-09T09:45:34;100459.66;;;33.03;44.04
2339;BME280;1180;51.438;6.978;2023-07-09T09:48:01;100455.41;;;33.02;43.30
2339;BME280;1180;51.438;6.978;2023-07-09T09:50:32;100455.31;;;32.96;44.72
2339;BME280;1180;51.438;6.978;2023-07-09T09:52:59;100458.63;;;33.04;45.40
2339;BME280;1180;51.438;6.978;2023-07-09T09:55:31;100456.41;;;33.12;44.74
2339;BME280;1180;51.438;6.978;2023-07-09T09:57:58;100454.66;;;33.18;45.14
2339;BME280;1180;51.438;6.978;2023-07-09T10:00:27;100457.97;;;33.25;43.34
2339;BME280;1180;51.438;6.978;2023-07-09T10:02:58;100459.72;;;33.20;42.67
2339;BME280;1180;51.438;6.978;2023-07-09T10:05:34;100452.75;;;33.31;43.34
2339;BME280;1180;51.438;6.978;2023-07-09T10:08:08;100448.66;;;33.40;43.86
2339;BME280;1180;51.438;6.978;2023-07-09T10:10:35;100452.00;;;33.47;43.98
2339;BME280;1180;51.438;6.978;2023-07-09T10:13:26;100452.88;;;33.53;43.08
2339;BME280;1180;51.438;6.978;2023-07-09T10:24:24;100441.63;;;33.63;44.87
2339;BME280;1180;51.438;6.978;2023-07-09T10:27:14;100440.16;;;33.72;43.13
2339;BME280;1180;51.438;6.978;2023-07-09T10:33:11;100432.50;;;33.93;42.53
2339;BME280;1180;51.438;6.978;2023-07-09T10:35:45;100419.63;;;34.02;41.96
2339;BME280;1180;51.438;6.978;2023-07-09T10:40:57;100417.22;;;34.22;41.15
2339;BME280;1180;51.438;6.978;2023-07-09T10:46:16;100421.34;;;34.30;41.75
2339;BME280;1180;51.438;6.978;2023-07-09T10:48:47;100437.25;;;34.25;42.13
2339;BME280;1180;51.438;6.978;2023-07-09T10:51:21;100435.16;;;34.27;40.41
2339;BME280;1180;51.438;6.978;2023-07-09T10:53:57;100428.41;;;34.41;41.12
2339;BME280;1180;51.438;6.978;2023-07-09T10:56:27;100429.38;;;34.52;39.62
2339;BME280;1180;51.438;6.978;2023-07-09T11:01:43;100417.31;;;34.67;39.87
2339;BME280;1180;51.438;6.978;2023-07-09T11:04:25;100425.22;;;34.62;39.24
2339;BME280;1180;51.438;6.978;2023-07-09T11:06:56;100426.53;;;34.59;39.28
2339;BME280;1180;51.438;6.978;2023-07-09T11:09:27;100418.53;;;34.59;38.64
2339;BME280;1180;51.438;6.978;2023-07-09T11:11:59;100410.09;;;34.67;38.71
2339;BME280;1180;51.438;6.978;2023-07-09T11:14:35;100408.53;;;34.71;39.64
2339;BME280;1180;51.438;6.978;2023-07-09T11:17:04;100412.88;;;34.78;39.35
2339;BME280;1180;51.438;6.978;2023-07-09T11:19:31;100402.94;;;34.95;39.87
2339;BME280;1180;51.438;6.978;2023-07-09T11:24:43;100397.00;;;35.10;38.35
2339;BME280;1180;51.438;6.978;2023-07-09T11:27:26;100394.31;;;35.10;39.21
2339;BME280;1180;51.438;6.978;2023-07-09T11:29:59;100384.59;;;35.26;38.45
2339;BME280;1180;51.438;6.978;2023-07-09T11:32:26;100377.78;;;35.41;37.86
2339;BME280;1180;51.438;6.978;2023-07-09T11:34:53;100379.69;;;35.46;37.55
2339;BME280;1180;51.438;6.978;2023-07-09T11:37:20;100375.94;;;35.47;38.01
2339;BME280;1180;51.438;6.978;2023-07-09T11:39:50;100379.78;;;35.56;37.33
2339;BME280;1180;51.438;6.978;2023-07-09T11:42:28;100370.97;;;35.50;37.56
2339;BME280;1180;51.438;6.978;2023-07-09T11:45:02;100366.09;;;35.47;37.71
2339;BME280;1180;51.438;6.978;2023-07-09T11:47:38;100368.88;;;35.58;38.41
2339;BME280;1180;51.438;6.978;2023-07-09T11:50:11;100361.97;;;35.67;37.87
2339;BME280;1180;51.438;6.978;2023-07-09T11:52:43;100365.75;;;35.71;36.96
2339;BME280;1180;51.438;6.978;2023-07-09T11:55:38;100365.81;;;35.81;36.66
2339;BME280;1180;51.438;6.978;2023-07-09T11:58:05;100360.75;;;35.85;37.11
2339;BME280;1180;51.438;6.978;2023-07-09T12:00:39;100368.03;;;35.95;36.85
2339;BME280;1180;51.438;6.978;2023-07-09T12:03:09;100364.13;;;36.08;35.75
2339;BME280;1180;51.438;6.978;2023-07-09T12:05:35;100370.28;;;36.13;36.52
2339;BME280;1180;51.438;6.978;2023-07-09T12:08:02;100372.66;;;36.10;36.60
2339;BME280;1180;51.438;6.978;2023-07-09T12:10:34;100375.91;;;36.22;36.72
2339;BME280;1180;51.438;6.978;2023-07-09T12:13:00;100365.25;;;36.27;36.88
2339;BME280;1180;51.438;6.978;2023-07-09T12:15:29;100355.94;;;36.40;36.43
2339;BME280;1180;51.438;6.978;2023-07-09T12:18:02;100356.25;;;36.49;35.41
2339;BME280;1180;51.438;6.978;2023-07-09T12:20:32;100366.97;;;36.54;36.11
2339;BME280;1180;51.438;6.978;2023-07-09T12:22:59;100374.66;;;36.40;36.70
2339;BME280;1180;51.438;6.978;2023-07-09T12:25:27;100372.25;;;36.34;36.04
2339;BME280;1180;51.438;6.978;2023-07-09T12:27:54;100373.69;;;36.52;36.06
2339;BME280;1180;51.438;6.978;2023-07-09T12:30:19;100366.50;;;36.68;35.54
2339;BME280;1180;51.438;6.978;2023-07-09T12:32:50;100373.72;;;36.78;35.79
2339;BME280;1180;51.438;6.978;2023-07-09T12:35:19;100359.56;;;36.82;36.29
2339;BME280;1180;51.438;6.978;2023-07-09T12:37:47;100356.91;;;36.88;36.66
2339;BME280;1180;51.438;6.978;2023-07-09T12:40:20;100359.31;;;36.89;36.49
2339;BME280;1180;51.438;6.978;2023-07-09T12:42:47;100354.22;;;36.93;36.64
2339;BME280;1180;51.438;6.978;2023-07-09T12:45:18;100343.22;;;36.79;36.88
2339;BME280;1180;51.438;6.978;2023-07-09T12:47:46;100352.38;;;36.93;36.84
2339;BME280;1180;51.438;6.978;2023-07-09T12:50:18;100344.38;;;37.04;36.30
2339;BME280;1180;51.438;6.978;2023-07-09T12:52:48;100340.84;;;36.93;36.26
2339;BME280;1180;51.438;6.978;2023-07-09T12:55:22;100338.47;;;36.86;36.94
2339;BME280;1180;51.438;6.978;2023-07-09T12:57:48;100343.81;;;36.91;36.37
2339;BME280;1180;51.438;6.978;2023-07-09T13:00:16;100342.19;;;36.95;36.54
2339;BME280;1180;51.438;6.978;2023-07-09T13:02:42;100336.31;;;36.88;36.65
2339;BME280;1180;51.438;6.978;2023-07-09T13:05:22;100335.50;;;36.82;36.62
2339;BME280;1180;51.438;6.978;2023-07-09T13:07:59;100335.25;;;36.84;37.27
2339;BME280;1180;51.438;6.978;2023-07-09T13:10:30;100332.81;;;36.82;36.95
2339;BME280;1180;51.438;6.978;2023-07-09T13:13:04;100330.44;;;36.81;37.64
2339;BME280;1180;51.438;6.978;2023-07-09T13:15:31;100322.13;;;36.72;37.13
2339;BME280;1180;51.438;6.978;2023-07-09T13:18:05;100322.63;;;36.59;38.62
2339;BME280;1180;51.438;6.978;2023-07-09T13:20:33;100322.31;;;36.50;38.30
2339;BME280;1180;51.438;6.978;2023-07-09T13:23:00;100317.53;;;36.52;37.72
2339;BME280;1180;51.438;6.978;2023-07-09T13:25:26;100310.81;;;36.39;37.32
2339;BME280;1180;51.438;6.978;2023-07-09T13:27:53;100303.56;;;36.34;37.79
2339;BME280;1180;51.438;6.978;2023-07-09T13:30:19;100296.59;;;36.23;38.36
2339;BME280;1180;51.438;6.978;2023-07-09T13:32:46;100290.66;;;36.05;37.17
2339;BME280;1180;51.438;6.978;2023-07-09T13:35:15;100279.13;;;35.99;37.78
2339;BME280;1180;51.438;6.978;2023-07-09T13:37:42;100282.25;;;35.86;37.56
2339;BME280;1180;51.438;6.978;2023-07-09T13:40:11;100291.56;;;35.78;38.00
2339;BME280;1180;51.438;6.978;2023-07-09T13:42:38;100291.81;;;35.71;38.11
2339;BME280;1180;51.438;6.978;2023-07-09T13:45:04;100288.00;;;35.62;37.84
2339;BME280;1180;51.438;6.978;2023-07-09T13:47:30;100283.94;;;35.49;38.15
2339;BME280;1180;51.438;6.978;2023-07-09T13:49:56;100286.25;;;35.40;38.91
2339;BME280;1180;51.438;6.978;2023-07-09T13:52:23;100285.91;;;35.26;38.35